Poplar, Montana
Current Conditions -  °F | °C
As of 5:53 PM on Saturday 22 Nov 2014 (Local Time) from KOLF Reporting Station
Scattered Clouds Scattered Clouds  
Wind Chill: 34°   Ceiling: Unl
Heat Index: 40°   Visibility: 10mi
Dew Point: 30°   Wind: 8mph
Humidity: 68%   Direction: 250°WSW
Pressure: 29.28"   Gusts: NA
Location:  48.11°N, 105.2°W
Report Text: KOLF 230053Z AUTO 25007KT 10SM SCT085 04/M01 A2928 RMK AO2 SLP933 T00441011
Loading
Personal Weather Stations






























Interactive Weather Map New forecast layout! Learn more

10-Day Weather Forecast

Advertisements
Track Severe Weather on mobile